• Join FlightAware (Why Join?)
  • Login
  • US Flag 
07:56AM EDT


 

Airport Tracker/Info


-or-


 

Live Flight TrackerFlight Track Log ✈ N20AZ ✈ 07-May-2013 ✈ KRYY - KJWN

Flight Track Log - Related Links

Times and Time Zones

All times are in EDT time to prevent confusion due to time zone crossing. See the N20AZ flight status page for this flight to view local times or setup timezone preferences in your user account.

Time Position Orientation Groundspeed Altitude Reporting Facility
EDT Latitude Longitude Course Direction KTS MPH feet Rate Location/Type
10:04AM 34.0333 -84.6333 310° West 109 125 2,200  Level Atlanta TRACON
10:05AM 34.0578 -84.6681 310° West 104 120 2,900 540 Climbing Atlanta Center
10:06AM 34.0828 -84.6733 350° North 104 120 3,400 540 Climbing Atlanta Center
10:07AM 34.1100 -84.6736 360° North 111 128 4,000 540 Climbing Atlanta Center
10:08AM 34.1369 -84.6736 360° North 104 120 4,500 540 Climbing Atlanta Center
10:09AM 34.1642 -84.6764 355° North 104 120 5,100 600 Climbing Atlanta Center
10:10AM 34.1933 -84.6792 355° North 104 120 5,800 720 Climbing Atlanta Center
10:11AM 34.2267 -84.6844 353° North 104 120 6,600 420 Climbing Atlanta Center
10:12AM 34.2581 -84.6972 341° North 104 120 6,700 -300 Climbing Atlanta Center
10:13AM 34.2953 -84.7178 335° Northwest 136 157 6,100 -300 Descending Atlanta Center
10:14AM 34.3328 -84.7381 336° Northwest 147 169 6,100 -60 Level Atlanta Center
10:15AM 34.3683 -84.7586 334° Northwest 147 169 6,000 -60 Descending Atlanta Center
10:16AM 34.4036 -84.7789 335° Northwest 142 163 6,000  Level Atlanta Center
10:17AM 34.4411 -84.8044 331° Northwest 142 163 6,000  Level Atlanta Center
10:18AM 34.4742 -84.8300 327° Northwest 137 158 6,000  Level Atlanta Center
10:19AM 34.5075 -84.8556 328° Northwest 137 158 6,000  Level Atlanta Center
10:20AM 34.5406 -84.8861 323° Northwest 137 158 6,000  Level Atlanta Center
10:21AM 34.5719 -84.9042 335° Northwest 143 165 6,000  Level Atlanta Center
10:22AM 34.6072 -84.9247 334° Northwest 143 165 6,000  Level Atlanta Center
10:23AM 34.6383 -84.9503 326° Northwest 136 157 6,000  Level Atlanta Center
10:24AM 34.6672 -84.9883 313° West 141 162 6,000  Level Atlanta Center
10:25AM 34.6961 -85.0192 319° Northwest 141 162 6,000  Level Atlanta Center
10:26AM 34.7231 -85.0522 315° West 136 157 6,000  Level Atlanta Center
10:27AM 34.7500 -85.0853 315° West 142 163 6,000  Level Atlanta Center
10:29AM 34.8188 -85.1075 345° North  Level FlightAware Approximate
10:36AM 35.0447 -85.2757 313° West  Level FlightAware Approximate
10:37AM 35.0707 -85.3103 313° West  Level FlightAware Approximate
10:38AM 35.0967 -85.3450 313° West  Level FlightAware Approximate
10:38AM 35.0547 -85.4614 312° West 143 165 6,000  Level Memphis Center
10:39AM 35.1227 -85.3797 313° West  Level FlightAware Approximate
10:39AM 35.0806 -85.4853 323° Northwest 138 159 6,000  Level Memphis Center
10:40AM 35.1487 -85.4144 312° West  Level FlightAware Approximate
10:40AM 35.1069 -85.5217 312° West 138 159 6,000  Level Memphis Center
10:41AM 35.1747 -85.4492 312° West  Level FlightAware Approximate
10:41AM 35.1311 -85.5533 313° West 138 159 6,000  Level Memphis Center
10:42AM 35.2007 -85.4839 312° West  Level FlightAware Approximate
10:42AM 35.1575 -85.5875 313° West 138 159 6,000  Level Memphis Center
10:43AM 35.2267 -85.5187 312° West  Level FlightAware Approximate
10:43AM 35.1836 -85.6164 318° Northwest 133 153 6,000  Level Memphis Center
10:44AM 35.2103 -85.6531 312° West 133 153 6,000  Level Memphis Center
10:45AM 35.2364 -85.6847 315° West 133 153 6,000  Level Memphis Center
10:46AM 35.2625 -85.7161 316° Northwest 133 153 6,000  Level Memphis Center
10:47AM 35.2867 -85.7481 313° West 133 153 6,000  Level Memphis Center
10:48AM 35.3131 -85.7822 313° West 133 153 6,000  Level Memphis Center
10:49AM 35.3414 -85.8136 318° Northwest 133 153 6,000  Level Memphis Center
10:50AM 35.3656 -85.8481 311° West 133 153 6,000  Level Memphis Center
10:51AM 35.3917 -85.8797 315° West 133 153 6,000  Level Memphis Center
10:52AM 35.4158 -85.9114 313° West 133 153 6,000  Level Memphis Center
10:53AM 35.4439 -85.9431 317° Northwest 133 153 6,000  Level Memphis Center
10:54AM 35.4703 -85.9775 313° West 133 153 6,000  Level Memphis Center
10:55AM 35.4964 -86.0092 315° West 133 153 6,000  Level Memphis Center
10:56AM 35.5206 -86.0436 311° West 133 153 6,000  Level Memphis Center
10:57AM 35.5467 -86.0753 315° West 133 153 6,000  Level Memphis Center
10:58AM 35.5747 -86.1072 317° Northwest 133 153 6,000  Level Memphis Center
10:59AM 35.6011 -86.1442 311° West 133 153 6,000  Level Memphis Center
11:00AM 35.6253 -86.1761 313° West 133 153 6,000  Level Memphis Center
11:01AM 35.6453 -86.2158 302° West 140 161 6,000 -120 Level Memphis Center
11:02AM 35.6733 -86.2425 322° Northwest 140 161 5,800 -420 Descending Memphis Center
11:03AM 35.6994 -86.2772 313° West 135 155 5,200 -600 Descending Memphis Center
11:04AM 35.7278 -86.3114 316° Northwest 135 155 4,600 -600 Descending Memphis Center
11:05AM 35.7539 -86.3461 313° West 135 155 4,000 -300 Descending Memphis Center
11:06AM 35.7800 -86.3858 309° West 135 155 4,000 -60 Level Memphis Center
11:07AM 35.8022 -86.4231 306° West 135 155 3,900  Descending Memphis Center
11:08AM 35.8222 -86.4606 303° West 135 155 4,000  Climbing Memphis Center
11:09AM 35.8439 -86.4953 308° West 135 155 4,000  Level Memphis Center
11:11AM 35.9000 -86.5667 314° West 134 154 4,000  Level Nashville TRACON
11:12AM 35.9167 -86.6167 292° West 134 154 4,000  Level Nashville TRACON
11:13AM 35.9333 -86.6333 321° Northwest 133 153 4,000  Level Nashville TRACON
11:14AM 35.9667 -86.6667 321° Northwest 133 153 4,000  Level Nashville TRACON
11:15AM 35.9833 -86.7000 302° West 132 152 4,000 -240 Level Nashville TRACON
11:16AM 36.0167 -86.7333 321° Northwest 133 153 3,600 -480 Descending Nashville TRACON
11:17AM 36.0333 -86.7833 292° West 139 160 3,000 -360 Descending Nashville TRACON
11:18AM 36.0667 -86.8000 338° Northwest 134 154 2,900 -120 Descending Nashville TRACON